METAR Formatted Surface Weather Observation
Issued by NWS

Home | Current Version | Previous Version | Text Only | Print | Product List | Glossary On
Versions: 1
000
SAUS46 KSTO 171258 COR
MTRBLU
METAR KBLU 171252Z AUTO 03003KT 10SM OVC065 07/06 A3005 RMK AO2
SLP149 T00670056 $



USA.gov is the U.S. government's official web portal to all federal, state and local government web resources and services.